Time;durP1;ratioP1;P1;durP2;ratioP2;P2;SDS_P1;SDS_P2;PMS_P1;PMS_P2;Temp;Humidity;BMP_temperature;BMP_pressure;BME280_temperature;BME280_humidity;BME280_pressure;Samples;Min_cycle;Max_cycle;Signal;HPM_P1;HPM_P2
2021/05/30 00:00:23;;;;;;;17.38;9.35;;;;;;;7.54;86.11;102544.44;5099635;28;20020;-75
2021/05/30 00:02:49;;;;;;;13.93;8.25;;;;;;;7.56;85.50;102541.03;5098976;28;20027;-75
2021/05/30 00:05:14;;;;;;;12.32;9.95;;;;;;;7.39;85.78;102547.50;5099599;28;20028;-75
2021/05/30 00:07:40;;;;;;;13.88;9.48;;;;;;;7.43;86.13;102547.63;5082172;28;20037;-75
2021/05/30 00:10:06;;;;;;;10.18;8.45;;;;;;;7.42;86.47;102543.28;5116837;28;20319;-75
2021/05/30 00:12:33;;;;;;;14.40;8.98;;;;;;;7.38;86.34;102538.84;5082227;28;20039;-75
2021/05/30 00:14:58;;;;;;;15.68;9.32;;;;;;;7.27;86.71;102538.53;5098925;28;20423;-74
2021/05/30 00:17:23;;;;;;;19.23;10.52;;;;;;;7.34;87.31;102537.00;5081978;28;20031;-74
2021/05/30 00:19:49;;;;;;;17.90;10.23;;;;;;;7.35;87.00;102540.47;5081648;28;20073;-74
2021/05/30 00:22:14;;;;;;;14.73;8.98;;;;;;;7.42;86.43;102545.00;5081935;28;20024;-74
2021/05/30 00:24:39;;;;;;;13.07;9.73;;;;;;;7.49;86.82;102543.44;5098858;28;20020;-75
2021/05/30 00:27:05;;;;;;;13.63;8.38;;;;;;;7.45;85.02;102537.28;5098730;28;20039;-74
2021/05/30 00:29:31;;;;;;;17.98;9.82;;;;;;;7.23;86.80;102547.09;5098681;28;20023;-74
2021/05/30 00:31:57;;;;;;;15.80;9.27;;;;;;;7.37;87.17;102546.59;5099160;28;20024;-74
2021/05/30 00:34:22;;;;;;;14.82;10.23;;;;;;;7.37;87.18;102550.06;5099299;28;20020;-74
2021/05/30 00:36:47;;;;;;;19.05;9.95;;;;;;;7.20;86.85;102552.22;5081606;28;20136;-74
2021/05/30 00:39:13;;;;;;;16.45;9.93;;;;;;;7.13;86.57;102550.31;5084579;28;20024;-74
2021/05/30 00:41:38;;;;;;;13.70;9.98;;;;;;;7.32;86.96;102545.59;5098179;28;20027;-74
2021/05/30 00:44:27;;;;;;;16.73;10.07;;;;;;;7.36;87.16;102550.03;5081715;28;20019;-74
2021/05/30 00:46:53;;;;;;;17.73;9.77;;;;;;;7.25;87.40;102549.75;5081239;28;20030;-74
2021/05/30 00:49:19;;;;;;;14.20;9.65;;;;;;;7.38;87.11;102553.56;5084442;28;20023;-74
2021/05/30 00:51:44;;;;;;;15.05;10.13;;;;;;;7.19;87.14;102544.38;5100187;28;20019;-74
2021/05/30 00:54:10;;;;;;;13.15;9.43;;;;;;;7.20;87.69;102541.81;5099650;28;20080;-74
2021/05/30 00:56:36;;;;;;;22.08;9.90;;;;;;;7.20;86.67;102546.13;5098449;28;20283;-74
2021/05/30 00:59:03;;;;;;;15.65;9.43;;;;;;;7.16;87.15;102539.09;5081440;28;20028;-74
2021/05/30 01:01:29;;;;;;;16.42;10.50;;;;;;;7.25;87.38;102542.84;5081240;28;20477;-74
2021/05/30 01:03:54;;;;;;;14.30;9.57;;;;;;;7.25;87.05;102540.25;5081348;28;20031;-74
2021/05/30 01:06:19;;;;;;;17.20;10.55;;;;;;;7.17;87.03;102546.94;5098062;28;20102;-74
2021/05/30 01:08:46;;;;;;;20.70;9.63;;;;;;;7.28;87.38;102540.31;5097682;28;20019;-74
2021/05/30 01:11:16;;;;;;;17.02;10.93;;;;;;;7.15;87.45;102534.75;5081101;28;20030;-74
2021/05/30 01:13:42;;;;;;;31.25;10.85;;;;;;;7.22;87.20;102534.94;5081025;28;20428;-74
2021/05/30 01:16:07;;;;;;;16.95;10.50;;;;;;;7.14;87.42;102545.97;5115729;28;20019;-74
2021/05/30 01:18:33;;;;;;;17.33;10.48;;;;;;;7.14;87.77;102540.78;5097477;28;20426;-74
2021/05/30 01:20:58;;;;;;;16.48;10.60;;;;;;;7.11;87.23;102541.56;5080686;28;20068;-74
2021/05/30 01:23:24;;;;;;;15.82;11.80;;;;;;;7.00;87.58;102540.41;5080772;28;20027;-73
2021/05/30 01:25:49;;;;;;;15.43;9.85;;;;;;;6.96;86.98;102542.00;5080366;28;20024;-74
2021/05/30 01:28:15;;;;;;;25.33;11.02;;;;;;;6.81;88.20;102537.25;5097422;28;20023;-74
2021/05/30 01:30:41;;;;;;;15.90;9.45;;;;;;;7.06;87.69;102537.94;5097541;28;20250;-74
2021/05/30 01:33:06;;;;;;;15.77;10.88;;;;;;;7.12;87.83;102548.53;5097355;28;20027;-74
2021/05/30 01:35:32;;;;;;;15.48;9.35;;;;;;;6.98;87.30;102545.56;5080498;28;20050;-74
2021/05/30 01:37:58;;;;;;;19.45;11.13;;;;;;;6.93;88.08;102558.41;5080145;28;20019;-74
2021/05/30 01:40:23;;;;;;;17.58;11.80;;;;;;;6.78;87.93;102547.56;5097078;28;20046;-74
2021/05/30 01:42:50;;;;;;;20.83;11.02;;;;;;;6.96;88.77;102556.75;5097126;28;20019;-74
2021/05/30 01:45:17;;;;;;;29.13;12.13;;;;;;;6.94;88.30;102549.78;5080710;28;20053;-74
2021/05/30 01:47:43;;;;;;;22.65;11.45;;;;;;;6.76;87.82;102557.03;5097101;28;20487;-74
2021/05/30 01:50:15;;;;;;;26.63;12.75;;;;;;;6.87;88.02;102554.75;5096859;28;20026;-74
2021/05/30 01:52:41;;;;;;;19.88;10.85;;;;;;;6.93;87.45;102555.78;5097167;28;20020;-74
2021/05/30 01:55:08;;;;;;;21.52;11.48;;;;;;;6.82;88.03;102559.81;5079925;28;20027;-74
2021/05/30 01:57:42;;;;;;;21.35;12.45;;;;;;;6.81;89.05;102550.25;5097032;28;20027;-74
2021/05/30 02:00:08;;;;;;;25.35;12.90;;;;;;;6.91;88.91;102557.50;5096650;28;20019;-74
2021/05/30 02:02:33;;;;;;;19.40;11.82;;;;;;;6.79;88.94;102557.13;5096910;28;20323;-74
2021/05/30 02:04:59;;;;;;;19.85;12.27;;;;;;;6.61;89.13;102557.44;5079781;28;20031;-74
2021/05/30 02:07:24;;;;;;;22.83;12.68;;;;;;;6.51;89.52;102552.81;5080151;28;20114;-74
2021/05/30 02:09:49;;;;;;;23.23;13.13;;;;;;;6.62;89.48;102555.75;5096616;28;20068;-73
2021/05/30 02:12:15;;;;;;;22.75;12.70;;;;;;;6.75;88.75;102548.38;5096772;28;20110;-74
2021/05/30 02:14:41;;;;;;;24.58;14.10;;;;;;;6.79;88.73;102551.94;5114695;28;20027;-74
2021/05/30 02:17:06;;;;;;;32.05;14.65;;;;;;;6.76;89.83;102544.03;5096595;28;20376;-74
2021/05/30 02:19:31;;;;;;;30.35;14.48;;;;;;;6.82;88.70;102546.81;5096467;28;20026;-74
2021/05/30 02:21:59;;;;;;;24.73;13.63;;;;;;;6.83;89.87;102547.69;5096758;28;20414;-74
2021/05/30 02:24:24;;;;;;;21.58;12.85;;;;;;;6.91;88.71;102549.69;5096875;28;20038;-74
2021/05/30 02:26:49;;;;;;;29.75;13.50;;;;;;;6.72;88.74;102544.78;5096737;28;20024;-74
2021/05/30 02:29:33;;;;;;;26.65;13.73;;;;;;;6.89;89.01;102551.34;5079396;28;20015;-73
2021/05/30 02:31:58;;;;;;;20.50;12.75;;;;;;;6.93;89.66;102548.00;5096862;28;20030;-74
2021/05/30 02:34:23;;;;;;;29.05;14.85;;;;;;;6.96;88.72;102554.13;5079652;28;20119;-74
2021/05/30 02:36:49;;;;;;;25.35;14.52;;;;;;;6.96;88.92;102547.22;5096493;28;20049;-73
2021/05/30 02:39:14;;;;;;;23.40;13.82;;;;;;;6.94;89.30;102551.50;5096506;28;20429;-73
2021/05/30 02:41:39;;;;;;;22.50;14.43;;;;;;;6.96;88.73;102541.16;5096607;28;20435;-74
2021/05/30 02:44:05;;;;;;;23.50;14.30;;;;;;;7.02;89.23;102547.41;5079466;28;20016;-74
2021/05/30 02:46:30;;;;;;;29.58;14.48;;;;;;;7.04;88.69;102550.03;5079450;28;20027;-74
2021/05/30 02:48:56;;;;;;;18.38;11.93;;;;;;;7.08;88.97;102544.09;5079660;28;20043;-73
2021/05/30 02:51:21;;;;;;;19.88;12.45;;;;;;;7.11;89.15;102546.75;5079572;28;20416;-74
2021/05/30 02:53:46;;;;;;;26.05;13.60;;;;;;;7.01;89.08;102556.03;5096691;28;20055;-74
2021/05/30 02:56:11;;;;;;;28.50;13.20;;;;;;;6.94;88.42;102554.97;5079309;28;20153;-74
2021/05/30 02:58:37;;;;;;;23.65;14.00;;;;;;;6.89;88.54;102553.09;5041039;22;1159709;-77
2021/05/30 03:01:02;;;;;;;25.20;14.43;;;;;;;6.76;89.09;102557.03;5095532;28;20023;-76
2021/05/30 03:03:27;;;;;;;26.10;14.15;;;;;;;6.62;89.97;102556.63;5095826;28;20432;-75
2021/05/30 03:05:53;;;;;;;21.67;14.40;;;;;;;6.71;89.12;102550.84;5097195;28;20027;-75
2021/05/30 03:08:18;;;;;;;30.55;15.38;;;;;;;6.76;88.65;102550.13;5099336;28;20072;-75
2021/05/30 03:10:44;;;;;;;24.65;14.60;;;;;;;6.48;89.65;102543.22;5099620;28;20027;-74
2021/05/30 03:13:09;;;;;;;29.33;14.88;;;;;;;6.49;90.41;102538.91;5099489;28;20027;-75
2021/05/30 03:15:34;;;;;;;24.90;14.90;;;;;;;6.63;90.46;102547.13;5099555;28;20015;-75
2021/05/30 03:18:00;;;;;;;25.85;13.93;;;;;;;6.67;90.61;102543.78;5098952;28;20111;-76
2021/05/30 03:20:25;;;;;;;35.65;15.40;;;;;;;6.65;89.39;102545.44;5082139;28;20030;-75
2021/05/30 03:22:51;;;;;;;24.27;13.80;;;;;;;6.62;90.26;102546.22;5099195;28;20034;-75
2021/05/30 03:25:16;;;;;;;27.90;14.25;;;;;;;6.62;89.84;102545.38;5099564;28;20059;-75
2021/05/30 03:27:41;;;;;;;34.30;15.23;;;;;;;6.47;89.94;102544.06;5099283;28;20077;-75
2021/05/30 03:30:08;;;;;;;25.90;14.63;;;;;;;6.44;90.75;102546.56;5098446;28;20020;-75
2021/05/30 03:32:34;;;;;;;25.08;15.13;;;;;;;6.51;90.27;102543.31;5082246;28;20077;-75
2021/05/30 03:35:00;;;;;;;28.10;15.18;;;;;;;6.64;89.73;102548.88;5082022;28;20072;-75
2021/05/30 03:37:26;;;;;;;30.40;16.98;;;;;;;6.66;90.57;102549.81;5099270;28;20073;-75
2021/05/30 03:39:55;;;;;;;32.63;15.52;;;;;;;6.78;89.88;102555.38;5098561;28;20428;-75
2021/05/30 03:42:23;;;;;;;31.15;17.08;;;;;;;6.83;89.57;102550.28;5099056;28;20059;-75
2021/05/30 03:44:49;;;;;;;27.00;16.10;;;;;;;6.70;89.59;102549.06;5082269;28;20070;-75
2021/05/30 03:47:14;;;;;;;30.17;16.48;;;;;;;6.68;90.45;102546.44;5099074;28;20420;-75
2021/05/30 03:49:40;;;;;;;33.78;16.85;;;;;;;6.77;89.41;102551.00;5098588;28;20024;-75
2021/05/30 03:52:06;;;;;;;31.73;16.17;;;;;;;6.84;89.85;102557.25;5081974;28;20016;-76
2021/05/30 03:54:32;;;;;;;26.05;16.08;;;;;;;6.93;90.05;102553.19;5098953;28;20076;-76
2021/05/30 03:56:57;;;;;;;29.25;15.27;;;;;;;7.00;89.04;102559.44;5098770;28;20016;-74
2021/05/30 03:59:25;;;;;;;26.70;15.40;;;;;;;7.11;88.69;102557.16;5081660;28;20065;-74
2021/05/30 04:01:51;;;;;;;27.05;15.48;;;;;;;7.16;89.45;102555.56;5098834;28;20027;-74
2021/05/30 04:04:16;;;;;;;28.48;16.00;;;;;;;6.98;89.36;102561.16;5082033;28;20314;-74
2021/05/30 04:06:41;;;;;;;30.73;16.48;;;;;;;6.99;89.09;102557.69;5098797;28;20031;-74
2021/05/30 04:09:07;;;;;;;29.48;15.88;;;;;;;7.13;89.29;102554.59;5081015;28;20035;-75
2021/05/30 04:11:32;;;;;;;25.00;14.90;;;;;;;7.32;88.67;102546.50;5081632;28;20023;-75
2021/05/30 04:13:57;;;;;;;27.90;16.70;;;;;;;7.28;88.37;102552.44;5081531;28;20037;-75
2021/05/30 04:16:22;;;;;;;26.33;14.55;;;;;;;7.38;88.51;102548.38;5098282;28;20047;-74
2021/05/30 04:18:48;;;;;;;25.10;14.95;;;;;;;7.47;88.31;102543.38;5096988;28;20051;-75
2021/05/30 04:21:13;;;;;;;26.00;14.95;;;;;;;7.52;88.00;102544.38;5098568;28;20458;-75
2021/05/30 04:23:38;;;;;;;26.40;15.10;;;;;;;7.77;87.75;102548.50;5098588;28;20059;-75
2021/05/30 04:26:04;;;;;;;25.60;15.70;;;;;;;7.73;87.45;102545.78;5098294;28;20071;-75
2021/05/30 04:28:29;;;;;;;23.52;14.35;;;;;;;7.82;87.66;102545.16;5097758;28;20031;-75
2021/05/30 04:30:54;;;;;;;30.00;15.88;;;;;;;7.89;86.85;102547.91;5081130;28;20023;-75
2021/05/30 04:33:20;;;;;;;32.03;16.90;;;;;;;8.02;87.68;102550.84;5080407;28;20028;-75
2021/05/30 04:35:45;;;;;;;28.60;16.42;;;;;;;7.94;87.22;102556.72;5080774;28;20023;-75
2021/05/30 04:38:11;;;;;;;31.23;16.40;;;;;;;7.93;87.25;102556.69;5097948;28;20447;-75
2021/05/30 04:40:37;;;;;;;35.47;17.48;;;;;;;7.92;86.65;102554.91;5097123;28;20072;-75
2021/05/30 04:43:02;;;;;;;30.50;17.15;;;;;;;7.91;87.87;102559.25;5080833;28;20367;-75
2021/05/30 04:45:28;;;;;;;32.22;16.30;;;;;;;7.91;87.79;102559.25;5097934;28;20023;-75
2021/05/30 04:47:53;;;;;;;29.30;15.15;;;;;;;8.03;86.96;102556.09;5080782;28;20336;-74
2021/05/30 04:50:21;;;;;;;28.85;14.52;;;;;;;8.25;86.56;102552.25;5079279;28;20043;-75
2021/05/30 04:52:46;;;;;;;25.60;13.65;;;;;;;8.40;85.83;102556.06;5081064;28;20644;-75
2021/05/30 04:55:12;;;;;;;27.55;12.77;;;;;;;8.51;85.13;102548.50;5080707;28;20023;-75
2021/05/30 04:57:41;;;;;;;23.60;12.82;;;;;;;8.28;86.52;102549.72;5095191;28;20028;-75
2021/05/30 05:00:09;;;;;;;24.13;12.25;;;;;;;8.34;85.96;102556.78;5097083;28;20024;-75
2021/05/30 05:02:34;;;;;;;21.23;11.10;;;;;;;8.33;85.86;102551.53;5080653;28;20416;-75
2021/05/30 05:05:00;;;;;;;20.42;9.73;;;;;;;8.39;85.76;102549.09;5096432;28;20030;-75
2021/05/30 05:07:25;;;;;;;16.98;9.80;;;;;;;8.57;85.55;102546.91;5081187;28;20122;-75
2021/05/30 05:09:51;;;;;;;16.30;9.38;;;;;;;8.81;84.13;102556.09;5097647;28;20110;-75
2021/05/30 05:12:16;;;;;;;13.15;7.82;;;;;;;8.93;83.25;102545.94;5097969;28;20108;-75
2021/05/30 05:14:41;;;;;;;14.85;8.10;;;;;;;8.97;82.96;102544.25;5097441;28;20023;-75
2021/05/30 05:17:06;;;;;;;22.33;10.45;;;;;;;8.85;84.40;102552.72;5115300;28;20019;-75
2021/05/30 05:19:32;;;;;;;13.32;7.78;;;;;;;9.20;83.70;102554.25;5096809;28;20412;-75
2021/05/30 05:21:57;;;;;;;13.57;8.35;;;;;;;9.23;82.98;102563.03;5080242;28;20023;-76
2021/05/30 05:24:22;;;;;;;17.70;9.45;;;;;;;8.86;83.03;102554.50;5097036;28;20035;-76
2021/05/30 05:26:48;;;;;;;17.08;10.38;;;;;;;8.76;83.58;102552.53;5080218;28;20112;-76
2021/05/30 05:29:13;;;;;;;17.20;9.85;;;;;;;8.68;83.84;102549.75;5096109;28;20328;-76
2021/05/30 05:31:39;;;;;;;21.02;11.30;;;;;;;8.37;85.24;102550.75;5080123;28;20085;-75
2021/05/30 05:34:04;;;;;;;22.08;11.50;;;;;;;8.39;86.49;102546.47;5097057;28;20022;-76
2021/05/30 05:36:29;;;;;;;23.40;11.82;;;;;;;8.34;85.97;102553.31;5097048;28;20370;-76
2021/05/30 05:38:55;;;;;;;21.63;10.82;;;;;;;8.23;87.18;102551.31;5096394;28;20016;-76
2021/05/30 05:41:20;;;;;;;19.95;10.43;;;;;;;8.05;86.99;102550.91;5096671;28;20102;-76
2021/05/30 05:43:45;;;;;;;23.00;10.35;;;;;;;8.07;87.83;102554.41;5080033;28;20027;-76
2021/05/30 05:46:11;;;;;;;21.30;10.57;;;;;;;8.25;87.40;102554.00;5096515;28;20024;-76
2021/05/30 05:48:36;;;;;;;15.88;10.23;;;;;;;8.13;88.26;102544.16;5079339;28;20076;-76
2021/05/30 05:51:01;;;;;;;22.13;11.68;;;;;;;8.13;88.05;102555.44;5096498;28;20019;-78
2021/05/30 05:53:28;;;;;;;19.83;11.68;;;;;;;7.99;88.17;102553.34;5113473;28;20770;-76
2021/05/30 05:55:53;;;;;;;20.17;10.57;;;;;;;8.03;88.50;102553.47;5079556;28;20412;-76
2021/05/30 05:58:18;;;;;;;18.77;9.93;;;;;;;8.11;88.31;102558.84;5079128;28;20038;-76
2021/05/30 06:00:44;;;;;;;17.45;8.68;;;;;;;8.03;88.16;102565.59;5114455;28;20035;-77
2021/05/30 06:03:09;;;;;;;13.38;8.85;;;;;;;8.28;87.54;102561.88;5096353;28;20028;-77
2021/05/30 06:05:35;;;;;;;23.50;12.27;;;;;;;8.10;87.58;102562.31;5079538;28;20024;-76
2021/05/30 06:08:01;;;;;;;19.98;9.60;;;;;;;8.13;88.08;102557.19;5079048;28;20451;-76
2021/05/30 06:10:27;;;;;;;19.27;11.13;;;;;;;8.13;86.95;102555.44;5095724;28;20030;-76
2021/05/30 06:12:53;;;;;;;21.80;12.15;;;;;;;8.10;87.96;102551.91;5079324;28;20479;-75
2021/05/30 06:15:20;;;;;;;11.50;9.50;;;;;;;8.23;86.72;102555.66;5079452;28;20024;-75
2021/05/30 06:17:51;;;;;;;18.92;11.02;;;;;;;8.43;86.44;102561.34;5114138;28;20088;-77
2021/05/30 06:20:16;;;;;;;19.48;10.18;;;;;;;8.56;86.01;102554.69;5096514;28;20030;-77
2021/05/30 06:22:42;;;;;;;23.70;11.93;;;;;;;8.40;85.50;102554.31;5079165;28;20064;-76
2021/05/30 06:25:07;;;;;;;21.25;12.00;;;;;;;8.40;84.78;102553.47;5096216;28;20031;-76
2021/05/30 06:27:33;;;;;;;18.50;11.90;;;;;;;8.42;84.41;102557.81;5079280;28;20023;-76
2021/05/30 06:29:58;;;;;;;18.83;12.68;;;;;;;8.37;84.83;102554.28;5095683;28;20027;-76
2021/05/30 06:32:23;;;;;;;18.38;10.45;;;;;;;8.61;84.47;102559.16;5096034;28;20030;-76
2021/05/30 06:34:50;;;;;;;18.45;11.57;;;;;;;8.49;84.85;102558.00;5096143;28;20019;-77
2021/05/30 06:37:15;;;;;;;22.38;12.40;;;;;;;8.44;84.96;102560.50;5095840;28;20019;-77
2021/05/30 06:39:41;;;;;;;22.35;13.35;;;;;;;8.24;86.26;102557.44;5078917;28;20095;-76
2021/05/30 06:42:06;;;;;;;22.60;12.70;;;;;;;8.18;85.80;102568.59;5099513;28;20477;-77
2021/05/30 06:44:32;;;;;;;22.90;13.88;;;;;;;8.26;85.90;102566.13;5114714;28;20016;-77
2021/05/30 06:46:57;;;;;;;27.05;13.77;;;;;;;8.57;85.29;102562.53;5083553;28;20050;-77
2021/05/30 06:49:22;;;;;;;20.42;12.45;;;;;;;8.77;83.58;102562.09;5069687;28;20078;-76
2021/05/30 06:51:47;;;;;;;16.80;10.13;;;;;;;9.14;82.51;102550.69;5089678;28;20015;-77
2021/05/30 06:54:13;;;;;;;21.15;12.10;;;;;;;9.41;82.05;102553.81;5076647;28;20019;-76
2021/05/30 06:56:38;;;;;;;17.02;10.82;;;;;;;9.38;81.01;102558.94;5082965;28;20023;-77
2021/05/30 06:59:04;;;;;;;19.33;11.68;;;;;;;9.37;80.63;102559.81;5086132;28;20023;-76
2021/05/30 07:01:29;;;;;;;12.55;9.18;;;;;;;9.78;78.79;102554.44;5064202;28;20032;-76
2021/05/30 07:03:55;;;;;;;16.95;9.55;;;;;;;9.58;80.16;102568.00;5082834;28;20111;-76
2021/05/30 07:06:22;;;;;;;24.05;11.38;;;;;;;9.75;78.79;102559.63;5096943;28;20046;-76
2021/05/30 07:08:48;;;;;;;13.40;9.63;;;;;;;10.16;77.18;102554.16;5091301;28;20054;-77
2021/05/30 07:11:13;;;;;;;11.80;9.52;;;;;;;10.20;77.89;102563.81;5100223;28;20020;-77
2021/05/30 07:13:39;;;;;;;17.73;10.32;;;;;;;9.96;78.78;102554.72;5069499;28;20030;-77
2021/05/30 07:16:05;;;;;;;14.95;10.60;;;;;;;9.85;81.38;102560.66;5094031;28;20440;-76
2021/05/30 07:18:30;;;;;;;16.88;10.85;;;;;;;9.47;80.53;102560.00;5064968;28;20088;-77
2021/05/30 07:20:56;;;;;;;16.75;10.88;;;;;;;9.42;80.48;102556.44;5063698;28;20031;-77
2021/05/30 07:23:22;;;;;;;14.07;9.85;;;;;;;9.83;80.21;102558.00;5077004;28;20027;-77
2021/05/30 07:25:48;;;;;;;16.27;10.30;;;;;;;10.02;78.76;102547.84;5076759;28;20494;-77
2021/05/30 07:28:14;;;;;;;12.23;9.77;;;;;;;9.86;79.23;102555.44;5073850;28;20116;-77
2021/05/30 07:30:39;;;;;;;25.70;10.70;;;;;;;9.87;78.16;102553.69;5080945;28;20112;-77
2021/05/30 07:33:05;;;;;;;19.73;10.57;;;;;;;9.95;79.40;102555.59;5073920;28;20031;-77
2021/05/30 07:35:31;;;;;;;16.17;10.65;;;;;;;9.90;78.30;102554.63;5062553;28;20083;-77
2021/05/30 07:37:57;;;;;;;16.48;10.38;;;;;;;9.62;79.19;102554.16;5081892;28;20077;-76
2021/05/30 07:40:22;;;;;;;20.48;11.00;;;;;;;9.80;79.20;102556.22;5098552;28;20087;-76
2021/05/30 07:42:48;;;;;;;21.85;12.23;;;;;;;10.00;79.06;102554.78;5067840;28;20015;-76
2021/05/30 07:45:14;;;;;;;16.88;10.55;;;;;;;9.81;78.93;102551.88;5098924;28;20019;-76
2021/05/30 07:47:40;;;;;;;14.60;10.45;;;;;;;10.34;77.06;102550.94;5068021;28;20023;-77
2021/05/30 07:50:07;;;;;;;11.50;9.93;;;;;;;10.17;76.96;102549.81;5098244;28;20019;-76
2021/05/30 07:52:32;;;;;;;13.48;9.85;;;;;;;10.76;74.50;102559.41;5084097;28;20417;-76
2021/05/30 07:54:58;;;;;;;13.63;9.88;;;;;;;11.16;73.27;102549.41;5082202;28;20023;-76
2021/05/30 07:57:23;;;;;;;17.52;9.35;;;;;;;12.18;69.57;102560.81;5081441;28;20302;-76
2021/05/30 07:59:48;;;;;;;11.75;9.13;;;;;;;13.16;64.98;102564.78;5081112;28;20415;-77
2021/05/30 08:02:14;;;;;;;11.80;8.35;;;;;;;14.54;60.73;102557.78;5089030;28;20340;-77
2021/05/30 08:04:39;;;;;;;11.27;7.63;;;;;;;15.16;58.46;102562.78;5061768;28;20365;-77
2021/05/30 08:07:04;;;;;;;10.90;7.90;;;;;;;17.61;50.20;102556.69;5085873;28;20027;-77
2021/05/30 08:09:30;;;;;;;8.10;7.35;;;;;;;17.27;51.01;102562.47;5081892;28;20377;-77
2021/05/30 08:11:57;;;;;;;9.10;8.13;;;;;;;17.42;50.13;102560.53;5098519;28;20027;-74
2021/05/30 08:14:23;;;;;;;9.45;7.60;;;;;;;16.78;52.33;102560.47;5108392;28;20022;-75
2021/05/30 08:16:49;;;;;;;7.90;7.10;;;;;;;16.15;55.07;102562.94;5095594;28;20023;-77
2021/05/30 08:19:14;;;;;;;10.68;8.55;;;;;;;14.59;58.49;102571.78;5096171;28;20107;-75
2021/05/30 08:21:41;;;;;;;9.48;7.63;;;;;;;14.87;58.69;102572.59;5080622;28;20035;-76
2021/05/30 08:24:07;;;;;;;10.45;7.43;;;;;;;16.24;54.80;102561.97;5080627;28;20026;-76
2021/05/30 08:26:32;;;;;;;9.45;7.38;;;;;;;14.19;59.70;102571.88;5086114;28;20024;-75
2021/05/30 08:28:58;;;;;;;10.23;8.52;;;;;;;15.04;56.55;102563.75;5075394;28;20027;-76
2021/05/30 08:31:23;;;;;;;10.82;8.25;;;;;;;14.73;58.24;102563.00;5085521;28;21810;-76
2021/05/30 08:33:48;;;;;;;9.05;8.15;;;;;;;14.36;59.22;102558.69;5073197;28;20399;-75
2021/05/30 08:36:13;;;;;;;9.48;7.40;;;;;;;12.90;65.05;102564.66;5071635;28;20083;-75
2021/05/30 08:38:39;;;;;;;10.90;8.57;;;;;;;12.97;65.08;102554.22;5112028;28;20102;-75
2021/05/30 08:41:04;;;;;;;9.73;8.18;;;;;;;11.95;69.14;102563.25;5074733;28;20031;-76
2021/05/30 08:43:29;;;;;;;12.35;9.40;;;;;;;12.27;67.16;102554.72;5066982;28;20072;-75
2021/05/30 08:45:55;;;;;;;12.00;8.98;;;;;;;11.66;70.24;102563.84;5092236;28;20020;-76
2021/05/30 08:48:21;;;;;;;14.02;10.65;;;;;;;11.27;70.37;102565.22;5075256;28;20019;-75
2021/05/30 08:51:02;;;;;;;13.52;10.32;;;;;;;11.40;70.80;102568.81;5067422;28;20024;-77
2021/05/30 08:53:28;;;;;;;14.32;10.00;;;;;;;11.54;69.97;102559.38;5078476;28;20080;-77
2021/05/30 08:55:54;;;;;;;14.18;9.80;;;;;;;11.60;71.36;102561.16;5088240;28;20066;-82
2021/05/30 08:58:19;;;;;;;10.60;8.77;;;;;;;12.13;68.28;102562.50;5083158;23;20041;-75
2021/05/30 09:00:44;;;;;;;13.38;9.38;;;;;;;12.06;66.80;102572.06;5058133;28;20455;-75
2021/05/30 09:03:14;;;;;;;12.98;9.18;;;;;;;12.08;67.77;102569.44;5066409;28;20376;-76
2021/05/30 09:05:40;;;;;;;14.23;9.82;;;;;;;11.48;70.06;102567.19;5062164;28;20028;-74
2021/05/30 09:08:06;;;;;;;12.80;9.38;;;;;;;11.37;71.50;102568.78;5074681;28;20102;-74
2021/05/30 09:10:34;;;;;;;12.23;8.70;;;;;;;11.92;69.30;102571.94;5074661;28;20079;-74
2021/05/30 09:13:13;;;;;;;10.85;9.52;;;;;;;11.72;70.28;102565.66;5066445;28;20028;-76
2021/05/30 09:18:35;;;;;;;15.35;9.10;;;;;;;12.13;68.66;102560.78;5063929;28;20089;-77
2021/05/30 09:21:12;;;;;;;;;;;;;;;12.67;67.22;102560.22;5059472;28;20424;-77
2021/05/30 09:23:45;;;;;;;8.18;7.38;;;;;;;12.70;66.39;102560.22;5067866;28;19994;-75
2021/05/30 09:26:15;;;;;;;13.52;8.65;;;;;;;12.63;66.24;102554.06;5076472;28;20407;-76
2021/05/30 09:29:08;;;;;;;12.75;8.65;;;;;;;12.82;66.78;102559.41;5087520;28;20029;-75
2021/05/30 09:31:34;;;;;;;12.70;8.48;;;;;;;12.60;66.60;102551.44;5088300;28;20110;-76
2021/05/30 09:33:59;;;;;;;13.73;9.25;;;;;;;12.63;64.83;102556.69;5077746;28;20106;-75
2021/05/30 09:36:24;;;;;;;10.93;8.63;;;;;;;12.63;65.31;102554.06;5076381;28;20115;-76
2021/05/30 09:39:02;;;;;;;15.35;9.50;;;;;;;12.72;65.21;102553.25;5072760;28;20428;-76
2021/05/30 09:41:27;;;;;;;13.38;8.38;;;;;;;13.52;62.38;102552.63;5075870;28;20039;-75
2021/05/30 09:43:53;;;;;;;13.02;8.73;;;;;;;13.51;63.00;102550.84;5094369;28;20016;-76
2021/05/30 09:46:24;;;;;;;13.32;8.68;;;;;;;13.83;61.37;102556.13;5072911;28;20066;-75
2021/05/30 09:48:49;;;;;;;13.00;8.65;;;;;;;13.06;64.00;102552.50;5076066;28;20240;-76
2021/05/30 09:51:33;;;;;;;12.83;8.47;;;;;;;13.05;64.33;102553.34;5094106;28;20028;-76
2021/05/30 09:54:04;;;;;;;12.02;8.50;;;;;;;12.93;63.99;102546.34;5076349;28;20280;-77
2021/05/30 09:56:35;;;;;;;12.57;8.32;;;;;;;12.78;64.26;102552.41;5076170;28;20118;-76
2021/05/30 09:59:03;;;;;;;10.52;7.53;;;;;;;13.17;62.95;102559.53;5093846;28;20023;-76
2021/05/30 10:01:58;;;;;;;15.13;7.70;;;;;;;13.30;63.98;102555.16;5055891;28;20039;-76
2021/05/30 10:04:27;;;;;;;14.63;9.18;;;;;;;13.19;66.07;102555.16;5057402;28;20047;-77
2021/05/30 10:06:53;;;;;;;16.73;8.77;;;;;;;13.42;64.12;102550.88;5072696;28;20036;-77
2021/05/30 10:09:19;;;;;;;15.07;9.25;;;;;;;13.42;62.89;102545.63;5075615;28;20336;-76
2021/05/30 10:11:44;;;;;;;13.38;8.93;;;;;;;13.52;64.26;102552.63;5056184;28;20024;-76
2021/05/30 10:14:10;;;;;;;10.73;8.52;;;;;;;14.07;61.95;102540.34;5058811;28;20096;-76
2021/05/30 10:16:36;;;;;;;11.52;8.38;;;;;;;13.74;63.52;102550.00;5056256;28;20107;-76
2021/05/30 10:19:31;;;;;;;9.90;7.93;;;;;;;13.68;63.37;102546.50;5061907;28;20028;-75
2021/05/30 10:21:58;;;;;;;12.85;8.93;;;;;;;14.12;61.29;102543.84;5056140;28;20334;-75
2021/05/30 10:24:24;;;;;;;14.43;8.65;;;;;;;13.58;63.16;102549.13;5076190;28;20371;-75
2021/05/30 10:27:09;;;;;;;18.40;9.45;;;;;;;14.02;62.47;102549.13;5055420;28;20029;-76
2021/05/30 10:29:35;;;;;;;;;;;;;;;14.41;61.36;102540.28;5052597;28;20488;-75
2021/05/30 10:32:14;;;;;;;10.30;7.65;;;;;;;14.33;61.82;102543.81;5070433;28;20063;-76
2021/05/30 10:35:18;;;;;;;11.10;8.90;;;;;;;14.47;61.01;102535.00;5044790;28;20079;-75
2021/05/30 10:37:51;;;;;;;11.52;7.88;;;;;;;14.53;59.82;102534.97;5088315;28;20423;-75
2021/05/30 10:40:23;;;;;;;9.48;7.75;;;;;;;14.98;59.42;102537.44;5055348;28;20017;-75
2021/05/30 10:43:07;;;;;;;11.98;8.23;;;;;;;15.61;57.31;102538.78;5080719;28;20028;-76
2021/05/30 10:45:33;;;;;;;14.27;8.40;;;;;;;15.71;57.06;102530.81;5074975;28;20078;-77
2021/05/30 10:48:19;;;;;;;14.05;7.85;;;;;;;16.05;56.03;102525.25;5092809;28;20031;-76
2021/05/30 10:53:37;;;;;;;9.05;7.88;;;;;;;15.75;56.54;102525.50;5078470;28;20024;-77
2021/05/30 10:56:26;;;;;;;8.23;7.15;;;;;;;15.39;55.91;102528.41;5092501;28;20344;-77
2021/05/30 10:59:03;;;;;;;11.80;6.97;;;;;;;15.38;56.85;102527.56;5073597;28;20028;-76
2021/05/30 11:01:35;;;;;;;10.65;6.68;;;;;;;16.14;55.36;102531.31;5073053;28;20039;-75
2021/05/30 11:04:26;;;;;;;8.18;7.40;;;;;;;16.03;55.52;102526.16;5092255;28;20163;-77
2021/05/30 11:07:20;;;;;;;8.88;7.63;;;;;;;16.26;56.12;102533.81;5074387;28;20024;-76
2021/05/30 11:09:58;;;;;;;10.80;7.25;;;;;;;16.96;52.07;102519.81;5077024;28;20078;-76
2021/05/30 11:12:32;;;;;;;8.02;6.88;;;;;;;17.68;51.61;102518.72;5091895;28;20428;-76
2021/05/30 11:15:10;;;;;;;9.83;7.13;;;;;;;18.33;48.66;102514.88;5094146;28;20389;-76
2021/05/30 11:17:37;;;;;;;9.07;8.10;;;;;;;17.98;49.60;102508.50;5072500;28;20063;-76
2021/05/30 11:20:04;;;;;;;9.95;7.80;;;;;;;18.83;47.43;102508.56;5057715;28;20078;-76
2021/05/30 11:22:45;;;;;;;12.73;7.88;;;;;;;18.78;48.29;102505.16;5055205;28;20028;-76
2021/05/30 11:25:12;;;;;;;9.05;8.15;;;;;;;18.97;46.21;102506.50;5087224;28;20035;-77